Adamsville, Pennsylvania
Current Conditions -  °F | °C
As of 5:53 PM on Friday 31 Oct 2014 (Local Time) from KGKJ Reporting Station
Light Rain Light Rain  
Wind Chill: 43°   Ceiling: 5500
Heat Index: 43°   Visibility: 5mi
Dew Point: 37°   Wind: 3mph
Humidity: 80%   Direction: NA
Pressure: 29.86"   Gusts: NA
Location:  41.51°N, 80.37°W
Report Text: KGKJ 312153Z AUTO VRB03KT 5SM -RA FEW046 OVC055 06/03 A2986 RMK AO2 RAB29 SLP118 P0000 T00610028 TSNO
Loading
Personal Weather Stations






























Interactive Weather Map
Tropical Storm Tracking
New forecast layout! Learn more

10-Day Weather Forecast

Advertisements
Track Severe Weather on mobile